Time;durP1;ratioP1;P1;durP2;ratioP2;P2;SDS_P1;SDS_P2;PMS_P1;PMS_P2;Temp;Humidity;BMP_temperature;BMP_pressure;BME280_temperature;BME280_humidity;BME280_pressure;Samples;Min_cycle;Max_cycle;Signal;HPM_P1;HPM_P2
2021/06/01 00:01:07;;;;;;;;;4.00;4.00;;;;;;;;5087595;28;8791;-54
2021/06/01 00:03:32;;;;;;;;;4.00;4.00;;;;;;;;5084655;28;8818;-54
2021/06/01 00:05:57;;;;;;;;;4.33;4.00;;;;;;;;5090245;27;8842;-53
2021/06/01 00:08:24;;;;;;;;;4.00;4.00;;;;;;;;5108879;27;8962;-54
2021/06/01 00:10:49;;;;;;;;;4.75;4.25;;;;;;;;5104282;27;8787;-54
2021/06/01 00:13:14;;;;;;;;;4.00;4.00;;;;;;;;5114935;27;8804;-54
2021/06/01 00:15:40;;;;;;;;;3.33;3.33;;;;;;;;5098997;27;8822;-54
2021/06/01 00:18:05;;;;;;;;;3.00;3.00;;;;;;;;5094913;27;11693;-54
2021/06/01 00:20:30;;;;;;;;;4.00;4.00;;;;;;;;5112166;27;8808;-54
2021/06/01 00:22:55;;;;;;;;;4.00;3.67;;;;;;;;5108967;27;8871;-54
2021/06/01 00:25:20;;;;;;;;;4.00;3.00;;;;;;;;5109533;27;9126;-54
2021/06/01 00:27:46;;;;;;;;;3.33;3.00;;;;;;;;5098820;27;8807;-54
2021/06/01 00:30:11;;;;;;;;;4.00;4.00;;;;;;;;5095062;27;8965;-54
2021/06/01 00:32:36;;;;;;;;;3.67;3.67;;;;;;;;5109518;27;10511;-54
2021/06/01 00:35:02;;;;;;;;;3.67;3.67;;;;;;;;5087937;28;11540;-54
2021/06/01 00:37:27;;;;;;;;;3.33;3.33;;;;;;;;5088261;28;8795;-54
2021/06/01 00:39:52;;;;;;;;;4.00;4.00;;;;;;;;5097702;27;8843;-54
2021/06/01 00:42:17;;;;;;;;;4.00;4.00;;;;;;;;5108415;27;12907;-54
2021/06/01 00:44:43;;;;;;;;;4.00;4.00;;;;;;;;5109483;27;8919;-55
2021/06/01 00:47:08;;;;;;;;;4.00;4.00;;;;;;;;5111325;27;9011;-54
2021/06/01 00:49:33;;;;;;;;;4.33;3.67;;;;;;;;5109812;27;8846;-54
2021/06/01 00:51:58;;;;;;;;;4.00;3.33;;;;;;;;5105212;27;10551;-54
2021/06/01 00:54:23;;;;;;;;;4.67;4.00;;;;;;;;5108535;27;9546;-53
2021/06/01 00:56:49;;;;;;;;;4.00;4.00;;;;;;;;5107688;27;10493;-55
2021/06/01 00:59:14;;;;;;;;;3.00;3.00;;;;;;;;5112558;27;8807;-54
2021/06/01 01:01:39;;;;;;;;;4.33;3.00;;;;;;;;5108666;27;9020;-54
2021/06/01 01:04:05;;;;;;;;;4.00;3.67;;;;;;;;5108605;27;8983;-55
2021/06/01 01:06:52;;;;;;;;;4.00;4.00;;;;;;;;5106575;27;10229;-54
2021/06/01 01:09:18;;;;;;;;;3.00;3.00;;;;;;;;5108825;27;9059;-54
2021/06/01 01:12:03;;;;;;;;;3.67;3.67;;;;;;;;5107642;27;8861;-54
2021/06/01 01:14:34;;;;;;;;;4.00;3.00;;;;;;;;5075361;28;8806;-54
2021/06/01 01:17:02;;;;;;;;;5.00;5.00;;;;;;;;5115129;27;11823;-54
2021/06/01 01:19:45;;;;;;;;;4.00;3.50;;;;;;;;5091406;27;8789;-54
2021/06/01 01:22:10;;;;;;;;;3.50;3.00;;;;;;;;5097586;27;11586;-54
2021/06/01 01:24:56;;;;;;;;;3.67;3.33;;;;;;;;5097935;27;12591;-54
2021/06/01 01:27:28;;;;;;;;;4.00;4.00;;;;;;;;5091427;27;10061;-54
2021/06/01 01:29:54;;;;;;;;;5.75;5.00;;;;;;;;5106119;27;11744;-54
2021/06/01 01:32:29;;;;;;;;;4.00;4.00;;;;;;;;5112149;27;10972;-54
2021/06/01 01:34:57;;;;;;;;;3.50;2.50;;;;;;;;5108968;27;10866;-54
2021/06/01 01:37:24;;;;;;;;;4.75;4.50;;;;;;;;5093257;27;11852;-54
2021/06/01 01:39:51;;;;;;;;;3.50;3.50;;;;;;;;5100007;27;10516;-54
2021/06/01 01:42:17;;;;;;;;;5.00;5.00;;;;;;;;5110135;27;12554;-54
2021/06/01 01:44:51;;;;;;;;;3.50;3.50;;;;;;;;5066321;27;12888;-55
2021/06/01 01:50:03;;;;;;;;;3.25;3.00;;;;;;;;5101028;27;8776;-54
2021/06/01 01:52:29;;;;;;;;;3.50;3.00;;;;;;;;5104506;27;9776;-54
2021/06/01 01:54:55;;;;;;;;;4.50;4.00;;;;;;;;5099367;27;8794;-54
2021/06/01 01:57:20;;;;;;;;;3.00;3.00;;;;;;;;5084817;28;8897;-54
2021/06/01 01:59:46;;;;;;;;;4.00;4.00;;;;;;;;5089936;28;10789;-54
2021/06/01 02:02:12;;;;;;;;;4.00;4.00;;;;;;;;5087244;28;8856;-54
2021/06/01 02:04:37;;;;;;;;;3.00;3.00;;;;;;;;5086016;28;8822;-54
2021/06/01 02:07:03;;;;;;;;;4.00;4.00;;;;;;;;5082972;28;8869;-54
2021/06/01 02:09:28;;;;;;;;;4.00;4.00;;;;;;;;5083893;28;8867;-54
2021/06/01 02:11:54;;;;;;;;;3.00;3.00;;;;;;;;5084832;28;8807;-54
2021/06/01 02:14:19;;;;;;;;;4.00;4.00;;;;;;;;5089826;28;8960;-54
2021/06/01 02:16:45;;;;;;;;;4.33;4.33;;;;;;;;5103524;27;8953;-54
2021/06/01 02:19:12;;;;;;;;;4.33;4.00;;;;;;;;5110438;27;8783;-54
2021/06/01 02:24:11;;;;;;;;;5.50;5.25;;;;;;;;5085953;28;11339;-54
2021/06/01 02:26:42;;;;;;;;;4.75;4.25;;;;;;;;5088807;27;11655;-54
2021/06/01 02:29:19;;;;;;;;;4.00;4.00;;;;;;;;5107771;27;17226;-53
2021/06/01 02:31:48;;;;;;;;;4.25;4.25;;;;;;;;5103590;27;8865;-54
2021/06/01 02:34:14;;;;;;;;;3.50;3.50;;;;;;;;5108364;27;8903;-54
2021/06/01 02:36:40;;;;;;;;;4.33;4.00;;;;;;;;5105633;27;11544;-54
2021/06/01 02:39:05;;;;;;;;;5.00;4.00;;;;;;;;5107248;27;12066;-54
2021/06/01 02:41:30;;;;;;;;;4.67;4.67;;;;;;;;5100905;27;9209;-54
2021/06/01 02:43:56;;;;;;;;;3.00;3.00;;;;;;;;5082944;27;11771;-54
2021/06/01 02:46:22;;;;;;;;;5.00;4.00;;;;;;;;5082681;28;12687;-54
2021/06/01 02:48:48;;;;;;;;;5.00;5.00;;;;;;;;5083045;28;8911;-54
2021/06/01 02:51:17;;;;;;;;;4.75;4.00;;;;;;;;5086078;27;8843;-54
2021/06/01 02:53:44;;;;;;;;;4.00;4.00;;;;;;;;5099976;27;10547;-55
2021/06/01 02:56:11;;;;;;;;;4.00;4.00;;;;;;;;5101932;27;8772;-54
2021/06/01 02:58:36;;;;;;;;;3.75;3.75;;;;;;;;5105188;27;8760;-54
2021/06/01 03:01:04;;;;;;;;;4.00;4.00;;;;;;;;5099886;27;11484;-54
2021/06/01 03:03:29;;;;;;;;;5.00;5.00;;;;;;;;5103025;27;11582;-54
2021/06/01 03:05:54;;;;;;;;;3.00;3.00;;;;;;;;5103241;27;8941;-54
2021/06/01 03:08:31;;;;;;;;;4.00;4.00;;;;;;;;5100859;27;10896;-54
2021/06/01 03:10:57;;;;;;;;;3.25;3.25;;;;;;;;5083189;27;9049;-54
2021/06/01 03:13:23;;;;;;;;;5.00;4.75;;;;;;;;5082593;28;11586;-54
2021/06/01 03:15:48;;;;;;;;;4.00;3.67;;;;;;;;5092640;27;10533;-54
2021/06/01 03:18:13;;;;;;;;;5.00;5.00;;;;;;;;5103274;27;11663;-54
2021/06/01 03:20:39;;;;;;;;;4.67;4.00;;;;;;;;5085538;28;11488;-54
2021/06/01 03:23:04;;;;;;;;;4.00;3.67;;;;;;;;5101222;27;10529;-54
2021/06/01 03:25:29;;;;;;;;;3.33;3.33;;;;;;;;5099143;27;11995;-54
2021/06/01 03:27:55;;;;;;;;;4.00;4.00;;;;;;;;5099728;27;11550;-54
2021/06/01 03:30:20;;;;;;;;;4.33;4.33;;;;;;;;5092099;27;11638;-54
2021/06/01 03:32:45;;;;;;;;;3.67;3.67;;;;;;;;5080827;28;8904;-55
2021/06/01 03:35:10;;;;;;;;;4.00;4.00;;;;;;;;5086853;28;11481;-54
2021/06/01 03:37:36;;;;;;;;;2.67;2.67;;;;;;;;5094431;27;11558;-54
2021/06/01 03:40:02;;;;;;;;;4.00;4.00;;;;;;;;5101323;27;11455;-54
2021/06/01 03:42:27;;;;;;;;;5.00;5.00;;;;;;;;5095395;27;13784;-54
2021/06/01 03:44:53;;;;;;;;;4.33;4.00;;;;;;;;5101454;27;8875;-54
2021/06/01 03:47:18;;;;;;;;;4.00;3.33;;;;;;;;5102763;27;10447;-54
2021/06/01 03:49:43;;;;;;;;;3.00;3.00;;;;;;;;5103544;27;10710;-54
2021/06/01 03:52:09;;;;;;;;;3.67;3.67;;;;;;;;5102422;27;11502;-54
2021/06/01 03:54:36;;;;;;;;;3.67;3.00;;;;;;;;5098798;27;8804;-54
2021/06/01 03:57:03;;;;;;;;;3.00;2.50;;;;;;;;5098792;27;8792;-54
2021/06/01 03:59:28;;;;;;;;;2.00;2.00;;;;;;;;5083351;28;10568;-54
2021/06/01 04:01:53;;;;;;;;;3.33;3.33;;;;;;;;5077628;28;11690;-54
2021/06/01 04:04:18;;;;;;;;;4.33;4.33;;;;;;;;5080277;28;11494;-54
2021/06/01 04:06:44;;;;;;;;;3.00;3.00;;;;;;;;5088234;27;9120;-54
2021/06/01 04:09:09;;;;;;;;;4.00;3.00;;;;;;;;5094945;27;11712;-54
2021/06/01 04:11:34;;;;;;;;;3.00;3.00;;;;;;;;5084856;28;9195;-54
2021/06/01 04:13:59;;;;;;;;;2.00;2.00;;;;;;;;5076864;28;8813;-54
2021/06/01 04:16:24;;;;;;;;;4.00;4.00;;;;;;;;5082784;28;8802;-54
2021/06/01 04:18:50;;;;;;;;;4.00;4.00;;;;;;;;5093445;27;8886;-54
2021/06/01 04:21:15;;;;;;;;;2.67;2.67;;;;;;;;5100561;27;8818;-54
2021/06/01 04:23:40;;;;;;;;;3.00;3.00;;;;;;;;5090061;28;12700;-54
2021/06/01 04:26:05;;;;;;;;;3.00;3.00;;;;;;;;5102100;27;11483;-54
2021/06/01 04:28:30;;;;;;;;;2.00;2.00;;;;;;;;5103000;27;8948;-54
2021/06/01 04:30:55;;;;;;;;;3.00;3.00;;;;;;;;5090338;27;8795;-54
2021/06/01 04:33:21;;;;;;;;;2.33;2.00;;;;;;;;5087125;27;9778;-54
2021/06/01 04:35:46;;;;;;;;;3.67;3.00;;;;;;;;5103940;27;10631;-54
2021/06/01 04:38:11;;;;;;;;;2.67;2.67;;;;;;;;5104910;27;10669;-55
2021/06/01 04:40:37;;;;;;;;;2.00;2.00;;;;;;;;5087382;27;11553;-54
2021/06/01 04:43:02;;;;;;;;;3.33;2.33;;;;;;;;5094214;27;8808;-54
2021/06/01 04:45:27;;;;;;;;;1.33;1.33;;;;;;;;5097426;27;12822;-54
2021/06/01 04:47:53;;;;;;;;;3.00;3.00;;;;;;;;5088690;28;8888;-54
2021/06/01 04:50:18;;;;;;;;;2.00;2.00;;;;;;;;5090842;28;11477;-54
2021/06/01 04:52:44;;;;;;;;;3.33;3.33;;;;;;;;5106427;27;8768;-54
2021/06/01 04:55:10;;;;;;;;;3.00;2.67;;;;;;;;5092339;27;12830;-54
2021/06/01 04:57:35;;;;;;;;;2.50;2.50;;;;;;;;5081732;28;10628;-54
2021/06/01 05:00:01;;;;;;;;;3.00;3.00;;;;;;;;5090246;27;13154;-54
2021/06/01 05:02:26;;;;;;;;;2.00;2.00;;;;;;;;5108316;27;11547;-54
2021/06/01 05:04:51;;;;;;;;;3.00;3.00;;;;;;;;5104368;27;8796;-54
2021/06/01 05:07:16;;;;;;;;;2.67;2.67;;;;;;;;5104889;27;8812;-54
2021/06/01 05:09:41;;;;;;;;;2.00;2.00;;;;;;;;5104050;27;12759;-54
2021/06/01 05:12:07;;;;;;;;;2.33;1.67;;;;;;;;5101935;27;8827;-54
2021/06/01 05:14:32;;;;;;;;;3.00;3.00;;;;;;;;5106481;27;10450;-54
2021/06/01 05:16:58;;;;;;;;;2.00;2.00;;;;;;;;5103723;27;11727;-54
2021/06/01 05:19:23;;;;;;;;;3.00;2.67;;;;;;;;5105459;27;9832;-54
2021/06/01 05:21:48;;;;;;;;;3.00;3.00;;;;;;;;5104043;27;11525;-54
2021/06/01 05:24:13;;;;;;;;;2.00;2.00;;;;;;;;5103359;27;9178;-54
2021/06/01 05:26:39;;;;;;;;;2.67;2.00;;;;;;;;5102038;27;8776;-55
2021/06/01 05:29:05;;;;;;;;;3.50;3.00;;;;;;;;5099385;27;8843;-53
2021/06/01 05:34:11;;;;;;;;;3.00;3.00;;;;;;;;5081841;28;11661;-54
2021/06/01 05:36:37;;;;;;;;;2.25;2.25;;;;;;;;5079594;28;10021;-54
2021/06/01 05:39:05;;;;;;;;;2.00;2.00;;;;;;;;5086735;27;11696;-54
2021/06/01 05:41:31;;;;;;;;;3.50;3.00;;;;;;;;5102810;27;8845;-54
2021/06/01 05:43:56;;;;;;;;;3.00;3.00;;;;;;;;5099457;27;10527;-54
2021/06/01 05:46:22;;;;;;;;;3.33;3.00;;;;;;;;5106321;27;8819;-54
2021/06/01 05:48:47;;;;;;;;;3.25;2.75;;;;;;;;5095413;27;8872;-53
2021/06/01 05:51:13;;;;;;;;;2.33;2.33;;;;;;;;5084591;28;9035;-54
2021/06/01 05:53:38;;;;;;;;;2.33;2.00;;;;;;;;5090304;28;10455;-52
2021/06/01 05:56:04;;;;;;;;;4.00;4.00;;;;;;;;5081258;28;8806;-52
2021/06/01 05:58:29;;;;;;;;;3.33;3.33;;;;;;;;5083962;28;10809;-52
2021/06/01 06:00:54;;;;;;;;;3.00;3.00;;;;;;;;5091707;27;12022;-64
2021/06/01 06:03:19;;;;;;;;;4.00;4.00;;;;;;;;5102146;27;8808;-64
2021/06/01 06:05:45;;;;;;;;;4.00;4.00;;;;;;;;5101861;27;10900;-54
2021/06/01 06:08:11;;;;;;;;;6.33;6.33;;;;;;;;5105857;27;8854;-53
2021/06/01 06:10:37;;;;;;;;;7.00;6.00;;;;;;;;5103909;27;11563;-64
2021/06/01 06:13:03;;;;;;;;;6.00;6.00;;;;;;;;5086295;27;11540;-53
2021/06/01 06:15:28;;;;;;;;;6.00;6.00;;;;;;;;5087642;27;8788;-53
2021/06/01 06:18:00;;;;;;;;;7.00;6.67;;;;;;;;5105388;27;8800;-53
2021/06/01 06:20:25;;;;;;;;;7.00;7.00;;;;;;;;5103066;27;11634;-64
2021/06/01 06:22:51;;;;;;;;;6.67;6.00;;;;;;;;5100612;27;9556;-72
2021/06/01 06:25:16;;;;;;;;;26.00;22.67;;;;;;;;5100301;27;10434;-61
2021/06/01 06:27:41;;;;;;;;;14.67;12.33;;;;;;;;5091070;27;24835;-66
2021/06/01 06:30:08;;;;;;;;;12.00;11.33;;;;;;;;5086042;27;14882;-63
2021/06/01 06:32:33;;;;;;;;;11.75;11.75;;;;;;;;5102343;27;12378;-66
2021/06/01 06:34:59;;;;;;;;;7.00;7.00;;;;;;;;5086044;27;10478;-54
2021/06/01 06:37:24;;;;;;;;;7.67;7.67;;;;;;;;5082311;28;22264;-54
2021/06/01 06:39:49;;;;;;;;;8.33;8.00;;;;;;;;5090768;27;9701;-55
2021/06/01 06:42:17;;;;;;;;;9.33;9.33;;;;;;;;5104667;27;11702;-64
2021/06/01 06:44:43;;;;;;;;;7.75;6.00;;;;;;;;5107534;27;11580;-54
2021/06/01 06:49:34;;;;;;;;;6.00;6.00;;;;;;;;5086035;27;10221;-54
2021/06/01 06:52:00;;;;;;;;;7.33;6.00;;;;;;;;5081020;28;8869;-57
2021/06/01 06:54:25;;;;;;;;;6.00;5.33;;;;;;;;5092567;27;8959;-53
2021/06/01 06:56:50;;;;;;;;;7.67;6.33;;;;;;;;5102711;27;11668;-53
2021/06/01 06:59:17;;;;;;;;;7.00;6.00;;;;;;;;5088453;28;11580;-54
2021/06/01 07:01:42;;;;;;;;;7.00;6.50;;;;;;;;5083142;27;8782;-52
2021/06/01 07:04:08;;;;;;;;;7.00;6.67;;;;;;;;5099402;27;8799;-53
2021/06/01 07:06:33;;;;;;;;;7.00;6.00;;;;;;;;5103820;27;8929;-53
2021/06/01 07:08:58;;;;;;;;;7.00;7.00;;;;;;;;5106545;27;8860;-53
2021/06/01 07:11:23;;;;;;;;;8.00;7.33;;;;;;;;5107321;27;8778;-53
2021/06/01 07:13:56;;;;;;;;;7.33;6.00;;;;;;;;5107583;27;11468;-52
2021/06/01 07:16:21;;;;;;;;;6.75;6.00;;;;;;;;5109164;27;12718;-53
2021/06/01 07:18:47;;;;;;;;;8.00;7.33;;;;;;;;5097758;27;8806;-53
2021/06/01 07:21:13;;;;;;;;;8.33;7.00;;;;;;;;5091242;27;11532;-53
2021/06/01 07:23:39;;;;;;;;;6.33;6.33;;;;;;;;5089354;28;8787;-53
2021/06/01 07:26:05;;;;;;;;;6.00;5.33;;;;;;;;5105848;27;11563;-53
2021/06/01 07:28:30;;;;;;;;;7.25;7.00;;;;;;;;5096738;27;9705;-53
2021/06/01 07:30:55;;;;;;;;;7.00;7.00;;;;;;;;5097244;27;11500;-53
2021/06/01 07:33:20;;;;;;;;;6.33;6.33;;;;;;;;5107864;27;8781;-53
2021/06/01 07:35:46;;;;;;;;;5.67;5.67;;;;;;;;5111843;27;11457;-53
2021/06/01 07:38:12;;;;;;;;;8.00;7.67;;;;;;;;5104537;27;11545;-53
2021/06/01 07:40:38;;;;;;;;;5.00;5.00;;;;;;;;5090744;27;10541;-53
2021/06/01 07:43:03;;;;;;;;;5.67;5.67;;;;;;;;5081504;28;11550;-53
2021/06/01 07:45:29;;;;;;;;;5.33;5.00;;;;;;;;5082869;28;8799;-52
2021/06/01 07:47:54;;;;;;;;;5.67;5.00;;;;;;;;5085423;28;8853;-53
2021/06/01 07:50:19;;;;;;;;;5.00;5.00;;;;;;;;5092256;28;8957;-52
2021/06/01 07:52:44;;;;;;;;;6.33;5.33;;;;;;;;5092994;27;8834;-53
2021/06/01 07:55:10;;;;;;;;;4.67;4.33;;;;;;;;5091763;28;12659;-53
2021/06/01 07:57:36;;;;;;;;;4.00;4.00;;;;;;;;5088003;28;10432;-52
2021/06/01 08:00:01;;;;;;;;;5.00;5.00;;;;;;;;5091150;27;8803;-52
2021/06/01 08:02:26;;;;;;;;;4.00;4.00;;;;;;;;5114611;27;8938;-52
2021/06/01 08:04:52;;;;;;;;;5.67;5.67;;;;;;;;5111086;27;8953;-52
2021/06/01 08:07:18;;;;;;;;;5.75;5.75;;;;;;;;5104415;27;11639;-52
2021/06/01 08:09:43;;;;;;;;;5.00;5.00;;;;;;;;5102618;27;8792;-52
2021/06/01 08:12:09;;;;;;;;;5.67;4.00;;;;;;;;5108486;27;8799;-53
2021/06/01 08:14:34;;;;;;;;;6.33;5.67;;;;;;;;5112418;27;9814;-52
2021/06/01 08:17:00;;;;;;;;;7.00;5.67;;;;;;;;5105417;27;11619;-53
2021/06/01 08:19:31;;;;;;;;;5.50;5.00;;;;;;;;5096394;27;9245;-53
2021/06/01 08:22:01;;;;;;;;;5.75;5.25;;;;;;;;5099093;27;11643;-52
2021/06/01 08:24:26;;;;;;;;;4.00;4.00;;;;;;;;5108408;27;8812;-53
2021/06/01 08:26:52;;;;;;;;;5.00;4.67;;;;;;;;5106898;27;11493;-53
2021/06/01 08:29:17;;;;;;;;;5.00;5.00;;;;;;;;5093687;28;11486;-52
2021/06/01 08:31:42;;;;;;;;;4.33;4.33;;;;;;;;5106161;27;8965;-53
2021/06/01 08:34:08;;;;;;;;;4.67;4.00;;;;;;;;5110589;27;11576;-53
2021/06/01 08:36:34;;;;;;;;;5.00;5.00;;;;;;;;5107375;27;8788;-52
2021/06/01 08:38:59;;;;;;;;;4.00;4.00;;;;;;;;5106717;27;10466;-53
2021/06/01 08:41:25;;;;;;;;;4.00;3.33;;;;;;;;5108959;27;8869;-53
2021/06/01 08:43:51;;;;;;;;;3.00;3.00;;;;;;;;5110918;27;8980;-53
2021/06/01 08:46:20;;;;;;;;;3.50;3.50;;;;;;;;5099241;28;11637;-53
2021/06/01 08:48:45;;;;;;;;;4.00;3.25;;;;;;;;5086678;28;8802;-53
2021/06/01 08:51:10;;;;;;;;;3.67;3.67;;;;;;;;5092831;28;11529;-53
2021/06/01 08:53:35;;;;;;;;;5.00;4.00;;;;;;;;5086409;28;12853;-53
2021/06/01 08:56:01;;;;;;;;;4.00;4.00;;;;;;;;5085525;28;11567;-53
2021/06/01 08:58:26;;;;;;;;;3.33;3.33;;;;;;;;5108468;27;8804;-52
2021/06/01 09:00:52;;;;;;;;;3.67;3.00;;;;;;;;5097674;27;11633;-52
2021/06/01 09:03:20;;;;;;;;;3.67;3.33;;;;;;;;5086064;27;8861;-53
2021/06/01 09:06:17;;;;;;;;;3.75;3.75;;;;;;;;5090324;27;8809;-53
2021/06/01 09:14:55;;;;;;;;;4.50;4.50;;;;;;;;5082173;28;13306;-52
2021/06/01 09:22:51;;;;;;;;;2.50;2.50;;;;;;;;5091524;27;8765;-53
2021/06/01 09:25:20;;;;;;;;;3.33;3.33;;;;;;;;5091381;28;12705;-53
2021/06/01 09:27:53;;;;;;;;;3.00;3.00;;;;;;;;5087819;28;11757;-52
2021/06/01 09:30:59;;;;;;;;;2.25;2.25;;;;;;;;5092073;27;8885;-53
2021/06/01 09:33:28;;;;;;;;;3.25;3.25;;;;;;;;5100478;27;11569;-53
2021/06/01 09:35:57;;;;;;;;;3.00;3.00;;;;;;;;5108799;27;8779;-53
2021/06/01 09:38:30;;;;;;;;;3.25;3.25;;;;;;;;5107568;27;9035;-53
2021/06/01 09:41:02;;;;;;;;;3.00;3.00;;;;;;;;5107009;27;8861;-53
2021/06/01 09:43:27;;;;;;;;;3.50;3.00;;;;;;;;5092624;27;8874;-53
2021/06/01 09:45:53;;;;;;;;;3.00;3.00;;;;;;;;5092277;28;8949;-53
2021/06/01 09:48:18;;;;;;;;;2.00;1.33;;;;;;;;5095075;27;8975;-53
2021/06/01 09:53:12;;;;;;;;;4.00;4.00;;;;;;;;5089190;28;11343;-53
2021/06/01 09:55:43;;;;;;;;;3.00;2.00;;;;;;;;5085819;28;8978;-52
2021/06/01 09:58:10;;;;;;;;;3.00;3.00;;;;;;;;5081870;28;9055;-53
2021/06/01 10:00:38;;;;;;;;;2.50;2.50;;;;;;;;5099166;27;8783;-53
2021/06/01 10:03:05;;;;;;;;;3.00;3.00;;;;;;;;5108595;27;11778;-52
2021/06/01 10:05:32;;;;;;;;;3.75;3.75;;;;;;;;5113871;27;11562;-53
2021/06/01 10:07:58;;;;;;;;;2.50;2.50;;;;;;;;5088728;28;8833;-53
2021/06/01 10:10:25;;;;;;;;;3.00;3.00;;;;;;;;5086485;28;11577;-53
2021/06/01 10:12:52;;;;;;;;;2.25;2.25;;;;;;;;5092480;27;11564;-53
2021/06/01 10:15:19;;;;;;;;;3.00;3.00;;;;;;;;5089791;28;11417;-53
2021/06/01 10:17:45;;;;;;;;;3.00;3.00;;;;;;;;5084130;28;11558;-53
2021/06/01 10:20:10;;;;;;;;;3.00;3.00;;;;;;;;5091660;28;8819;-53
2021/06/01 10:22:36;;;;;;;;;2.00;2.00;;;;;;;;5103048;27;8808;-53
2021/06/01 10:25:01;;;;;;;;;2.33;2.33;;;;;;;;5096061;27;8804;-52
2021/06/01 10:27:26;;;;;;;;;2.33;2.33;;;;;;;;5087379;28;8878;-53
2021/06/01 10:29:52;;;;;;;;;3.00;3.00;;;;;;;;5087069;28;8826;-53
2021/06/01 10:32:17;;;;;;;;;3.00;3.00;;;;;;;;5090047;28;11471;-53
2021/06/01 10:34:43;;;;;;;;;2.00;2.00;;;;;;;;5104456;27;10308;-54
2021/06/01 10:42:44;;;;;;;;;2.75;2.00;;;;;;;;5103669;27;11328;-53
2021/06/01 10:50:46;;;;;;;;;2.00;2.00;;;;;;;;5084605;28;17275;-53
2021/06/01 10:53:18;;;;;;;;;3.00;3.00;;;;;;;;5105721;27;14917;-53
2021/06/01 10:56:03;;;;;;;;;3.00;3.00;;;;;;;;5111087;27;8780;-53
2021/06/01 10:58:34;;;;;;;;;2.00;2.00;;;;;;;;5093367;27;9647;-53
2021/06/01 11:04:14;;;;;;;;;2.00;2.00;;;;;;;;5102324;27;8777;-52
2021/06/01 11:06:46;;;;;;;;;2.25;2.25;;;;;;;;5106720;27;8825;-53
2021/06/01 11:09:29;;;;;;;;;2.25;2.00;;;;;;;;5099786;27;8789;-53
2021/06/01 11:11:54;;;;;;;;;2.00;2.00;;;;;;;;5086770;28;8868;-53
2021/06/01 11:14:27;;;;;;;;;2.00;2.00;;;;;;;;5089153;28;8782;-53
2021/06/01 11:16:54;;;;;;;;;2.25;1.75;;;;;;;;5087111;28;8811;-52
2021/06/01 11:19:21;;;;;;;;;2.50;2.50;;;;;;;;5088676;28;10581;-53
2021/06/01 11:21:57;;;;;;;;;2.00;2.00;;;;;;;;5086139;28;10543;-53
2021/06/01 11:35:27;;;;;;;;;2.00;1.00;;;;;;;;5091637;28;11489;-52
2021/06/01 11:38:09;;;;;;;;;3.00;3.00;;;;;;;;5086881;28;11742;-53
2021/06/01 11:40:51;;;;;;;;;3.00;2.00;;;;;;;;5089328;28;8783;-53
2021/06/01 11:43:17;;;;;;;;;2.25;2.25;;;;;;;;5102454;27;8771;-53
2021/06/01 11:53:56;;;;;;;;;3.00;2.00;;;;;;;;5111423;27;11337;-53
2021/06/01 11:56:32;;;;;;;;;2.00;2.00;;;;;;;;5111206;27;14119;-53
2021/06/01 12:04:44;;;;;;;;;2.00;2.00;;;;;;;;5090746;28;11363;-53
2021/06/01 12:18:15;;;;;;;;;2.00;2.00;;;;;;;;5108075;27;8776;-53
2021/06/01 12:20:40;;;;;;;;;1.25;1.25;;;;;;;;5111747;27;8808;-53
2021/06/01 12:23:24;;;;;;;;;2.00;2.00;;;;;;;;5086465;27;11542;-53
2021/06/01 12:31:47;;;;;;;;;2.00;2.00;;;;;;;;5085387;28;11478;-53
2021/06/01 12:34:16;;;;;;;;;1.00;0.00;;;;;;;;5101704;27;8784;-54
2021/06/01 12:45:21;;;;;;;;;2.00;2.00;;;;;;;;5089376;27;8785;-55
2021/06/01 13:20:49;;;;;;;;;2.75;2.75;;;;;;;;5108713;27;9369;-68
2021/06/01 13:31:31;;;;;;;;;3.00;2.75;;;;;;;;5110360;27;8760;-71
2021/06/01 13:46:42;;;;;;;;;1.00;1.00;;;;;;;;5090718;28;12327;-68
2021/06/01 13:49:14;;;;;;;;;2.00;1.00;;;;;;;;5086848;27;8832;-67
2021/06/01 13:56:54;;;;;;;;;1.00;1.00;;;;;;;;5083029;27;11305;-56
2021/06/01 14:15:36;;;;;;;;;2.50;2.00;;;;;;;;5088644;28;10280;-81
2021/06/01 14:32:08;;;;;;;;;2.00;2.00;;;;;;;;5088708;27;8802;-57
2021/06/01 14:37:49;;;;;;;;;3.25;3.25;;;;;;;;5107763;27;11513;-65
2021/06/01 14:54:43;;;;;;;;;2.00;2.00;;;;;;;;5106153;27;9708;-66
2021/06/01 15:08:01;;;;;;;;;2.00;2.00;;;;;;;;5102313;27;11452;-67
2021/06/01 15:10:47;;;;;;;;;2.50;2.00;;;;;;;;5091564;27;81711;-56
2021/06/01 15:49:28;;;;;;;;;1.00;1.00;;;;;;;;5108767;27;8807;-65
2021/06/01 16:11:33;;;;;;;;;2.00;2.00;;;;;;;;5106100;27;10125;-53
2021/06/01 16:14:11;;;;;;;;;1.00;1.00;;;;;;;;5108720;27;8897;-53
2021/06/01 16:30:23;;;;;;;;;1.00;1.00;;;;;;;;5107039;27;11342;-53
2021/06/01 16:41:38;;;;;;;;;0.25;0.25;;;;;;;;5110446;27;11549;-54
2021/06/01 16:44:11;;;;;;;;;1.00;1.00;;;;;;;;5080602;27;11359;-53
2021/06/01 17:03:13;;;;;;;;;0.50;0.50;;;;;;;;5111358;27;8748;-54
2021/06/01 17:05:46;;;;;;;;;0.00;0.00;;;;;;;;5107290;27;9872;-54
2021/06/01 17:13:55;;;;;;;;;1.50;1.00;;;;;;;;5088850;28;11333;-53
2021/06/01 17:16:45;;;;;;;;;0.75;0.75;;;;;;;;5100908;27;8807;-54
2021/06/01 17:35:24;;;;;;;;;1.00;1.00;;;;;;;;5108196;27;16133;-54
2021/06/01 17:37:50;;;;;;;;;0.00;0.00;;;;;;;;5088705;27;10263;-73
2021/06/01 17:40:18;;;;;;;;;1.00;1.00;;;;;;;;5090982;27;8901;-71
2021/06/01 17:42:45;;;;;;;;;1.25;1.25;;;;;;;;5091028;28;8783;-71
2021/06/01 17:45:14;;;;;;;;;1.00;1.00;;;;;;;;5096495;27;8775;-85
2021/06/01 17:47:43;;;;;;;;;2.00;2.00;;;;;;;;5113658;27;9889;-81
2021/06/01 17:50:13;;;;;;;;;3.75;2.50;;;;;;;;5109346;27;12979;-73
2021/06/01 17:52:38;;;;;;;;;4.25;3.00;;;;;;;;5104957;27;11572;-72
2021/06/01 17:55:04;;;;;;;;;3.00;2.00;;;;;;;;5102811;27;11322;-72
2021/06/01 17:57:30;;;;;;;;;4.75;4.25;;;;;;;;5095792;27;10756;-77
2021/06/01 17:59:55;;;;;;;;;4.00;2.67;;;;;;;;5108250;27;11538;-71
2021/06/01 18:02:21;;;;;;;;;3.67;3.00;;;;;;;;5092013;28;12737;-73
2021/06/01 18:04:48;;;;;;;;;6.33;4.33;;;;;;;;5090711;28;11310;-84
2021/06/01 18:10:23;;;;;;;;;5.75;4.50;;;;;;;;5087390;28;8797;-56
2021/06/01 18:13:18;;;;;;;;;3.00;2.25;;;;;;;;5087609;28;11401;-56
2021/06/01 18:41:02;;;;;;;;;1.50;1.50;;;;;;;;5089985;28;9488;-56
2021/06/01 19:00:09;;;;;;;;;2.25;2.25;;;;;;;;5108712;27;9456;-55
2021/06/01 19:22:20;;;;;;;;;1.00;1.00;;;;;;;;5089032;28;8767;-57
2021/06/01 19:24:46;;;;;;;;;0.25;0.25;;;;;;;;5089038;28;8771;-56
2021/06/01 19:27:58;;;;;;;;;1.00;1.00;;;;;;;;5089340;27;11427;-56
2021/06/01 19:49:55;;;;;;;;;1.00;1.00;;;;;;;;5102149;27;11312;-56
2021/06/01 19:52:13;;;;;;;;;0.00;0.00;;;;;;;;5109563;27;9027;-56
2021/06/01 19:54:38;;;;;;;;;1.67;1.00;;;;;;;;5112275;27;8883;-55
2021/06/01 19:57:04;;;;;;;;;0.00;0.00;;;;;;;;5108541;27;10449;-56
2021/06/01 19:59:31;;;;;;;;;1.00;1.00;;;;;;;;5114804;27;11531;-55
2021/06/01 20:01:56;;;;;;;;;1.00;1.00;;;;;;;;5092650;27;8898;-56
2021/06/01 20:04:22;;;;;;;;;0.67;0.00;;;;;;;;5105746;27;8907;-56
2021/06/01 20:06:48;;;;;;;;;1.00;1.00;;;;;;;;5100457;27;10450;-55
2021/06/01 20:09:16;;;;;;;;;1.25;0.25;;;;;;;;5088881;28;10418;-55
2021/06/01 20:11:41;;;;;;;;;0.00;0.00;;;;;;;;5091807;28;10506;-55
2021/06/01 20:14:07;;;;;;;;;1.00;1.00;;;;;;;;5092674;28;11484;-55
2021/06/01 20:16:34;;;;;;;;;1.00;1.00;;;;;;;;5105833;27;9692;-55
2021/06/01 20:19:00;;;;;;;;;1.00;1.00;;;;;;;;5106838;27;8826;-55
2021/06/01 20:21:26;;;;;;;;;1.50;1.50;;;;;;;;5091566;27;8852;-55
2021/06/01 20:23:54;;;;;;;;;0.33;0.00;;;;;;;;5096925;27;8816;-56
2021/06/01 20:26:20;;;;;;;;;1.00;1.00;;;;;;;;5110494;27;11549;-55
2021/06/01 20:28:51;;;;;;;;;0.00;0.00;;;;;;;;5112244;27;11539;-55
2021/06/01 20:31:19;;;;;;;;;2.00;1.75;;;;;;;;5098368;27;8817;-55
2021/06/01 20:33:44;;;;;;;;;4.00;3.00;;;;;;;;5098506;27;11555;-56
2021/06/01 20:36:10;;;;;;;;;6.00;6.00;;;;;;;;5106546;27;11656;-55
2021/06/01 20:38:36;;;;;;;;;7.33;6.67;;;;;;;;5110567;27;12248;-55
2021/06/01 20:41:03;;;;;;;;;24.20;24.00;;;;;;;;5087717;28;11546;-55
2021/06/01 20:43:28;;;;;;;;;30.20;30.20;;;;;;;;5086498;28;23854;-56
2021/06/01 20:45:53;;;;;;;;;24.75;24.75;;;;;;;;5099491;27;13623;-55
2021/06/01 20:48:21;;;;;;;;;23.75;22.50;;;;;;;;5100734;27;13427;-55
2021/06/01 20:50:47;;;;;;;;;20.00;18.60;;;;;;;;5089135;27;11822;-55
2021/06/01 20:53:12;;;;;;;;;16.75;16.25;;;;;;;;5103409;27;12439;-55
2021/06/01 20:55:38;;;;;;;;;15.00;14.67;;;;;;;;5109069;27;13376;-56
2021/06/01 20:58:05;;;;;;;;;12.67;12.67;;;;;;;;5108247;27;11532;-55
2021/06/01 21:00:31;;;;;;;;;12.00;11.75;;;;;;;;5109269;27;11508;-55
2021/06/01 21:02:57;;;;;;;;;7.75;7.50;;;;;;;;5108135;27;11727;-55
2021/06/01 21:05:28;;;;;;;;;8.33;8.33;;;;;;;;5113782;27;23385;-55
2021/06/01 21:07:54;;;;;;;;;8.00;8.00;;;;;;;;5086067;27;11544;-55
2021/06/01 21:10:19;;;;;;;;;6.25;5.75;;;;;;;;5105313;27;8788;-55
2021/06/01 21:12:44;;;;;;;;;8.67;8.00;;;;;;;;5107352;27;11479;-55
2021/06/01 21:15:10;;;;;;;;;6.00;6.00;;;;;;;;5106306;27;11543;-53
2021/06/01 21:17:36;;;;;;;;;7.00;6.67;;;;;;;;5090485;28;10712;-55
2021/06/01 21:20:02;;;;;;;;;5.50;5.50;;;;;;;;5088743;27;11762;-55
2021/06/01 21:22:27;;;;;;;;;5.00;5.00;;;;;;;;5102375;27;11636;-56
2021/06/01 21:24:54;;;;;;;;;5.00;5.00;;;;;;;;5112243;27;8792;-55
2021/06/01 21:27:19;;;;;;;;;5.75;5.50;;;;;;;;5090707;27;8884;-55
2021/06/01 21:29:45;;;;;;;;;5.33;5.33;;;;;;;;5088998;27;8879;-56
2021/06/01 21:32:14;;;;;;;;;4.67;4.67;;;;;;;;5110159;27;8805;-55
2021/06/01 21:34:40;;;;;;;;;4.50;4.50;;;;;;;;5109658;27;11728;-56
2021/06/01 21:37:06;;;;;;;;;5.33;5.33;;;;;;;;5111268;27;8800;-55